Time;durP1;ratioP1;P1;durP2;ratioP2;P2;SDS_P1;SDS_P2;PMS_P1;PMS_P2;Temp;Humidity;BMP_temperature;BMP_pressure;BME280_temperature;BME280_humidity;BME280_pressure;Samples;Min_cycle;Max_cycle;Signal;HPM_P1;HPM_P2
2022/08/25 00:02:02;;;;;;;;;;;27.80;77.80;;;;;;5051776;28;20015;-62
2022/08/25 00:04:28;;;;;;;;;;;27.60;77.80;;;;;;5053708;28;19925;-61
2022/08/25 00:06:54;;;;;;;;;;;27.60;77.70;;;;;;5052922;28;19924;-62
2022/08/25 00:09:21;;;;;;;;;;;27.60;77.10;;;;;;5053754;28;19947;-62
2022/08/25 00:11:48;;;;;;;;;;;27.80;77.70;;;;;;5055187;28;19925;-62
2022/08/25 00:14:15;;;;;;;;;;;27.80;77.50;;;;;;5035557;28;19928;-63
2022/08/25 00:16:40;;;;;;;;;;;27.50;77.30;;;;;;5053529;28;20398;-62
2022/08/25 00:19:07;;;;;;;;;;;27.40;77.00;;;;;;5052568;28;19952;-62
2022/08/25 00:21:33;;;;;;;;;;;27.60;77.10;;;;;;5069154;28;19926;-62
2022/08/25 00:24:01;;;;;;;;;;;27.70;77.10;;;;;;5053346;28;20027;-61
2022/08/25 00:26:26;;;;;;;;;;;27.70;77.40;;;;;;5052056;28;20310;-63
2022/08/25 00:28:52;;;;;;;;;;;27.70;77.10;;;;;;5035946;28;19925;-62
2022/08/25 00:31:19;;;;;;;;;;;27.90;77.20;;;;;;5052812;28;19925;-62
2022/08/25 00:33:44;;;;;;;;;;;27.90;77.30;;;;;;5052265;28;19987;-62
2022/08/25 00:36:13;;;;;;;;;;;27.70;76.90;;;;;;5052429;28;20373;-62
2022/08/25 00:38:39;;;;;;;;;;;27.70;76.00;;;;;;5052429;28;19978;-65
2022/08/25 00:41:05;;;;;;;;;;;27.80;77.10;;;;;;5034324;28;20378;-62
2022/08/25 00:43:36;;;;;;;;;;;27.50;76.60;;;;;;5052793;28;19925;-62
2022/08/25 00:46:02;;;;;;;;;;;27.40;75.30;;;;;;5052657;28;19924;-61
2022/08/25 00:48:28;;;;;;;;;;;27.60;76.90;;;;;;5053153;28;19931;-62
2022/08/25 00:50:54;;;;;;;;;;;27.40;76.50;;;;;;5031953;28;19929;-62
2022/08/25 00:53:19;;;;;;;;;;;27.70;76.40;;;;;;5046693;28;19925;-62
2022/08/25 00:55:45;;;;;;;;;;;27.90;76.80;;;;;;5052723;28;19968;-63
2022/08/25 00:58:13;;;;;;;;;;;27.70;76.70;;;;;;5067834;28;19994;-62
2022/08/25 01:00:40;;;;;;;;;;;27.70;77.00;;;;;;5050853;28;20020;-62
2022/08/25 01:03:06;;;;;;;;;;;27.70;76.70;;;;;;5051711;28;19948;-62
2022/08/25 01:05:32;;;;;;;;;;;27.70;76.40;;;;;;5052170;28;19925;-62
2022/08/25 01:07:58;;;;;;;;;;;27.60;76.30;;;;;;5051510;28;19931;-62
2022/08/25 01:10:24;;;;;;;;;;;27.70;76.70;;;;;;5052024;28;19924;-62
2022/08/25 01:12:50;;;;;;;;;;;27.40;76.20;;;;;;5051971;28;20343;-62
2022/08/25 01:15:15;;;;;;;;;;;27.40;76.10;;;;;;5053011;28;19976;-62
2022/08/25 01:17:49;;;;;;;;;;;27.40;76.30;;;;;;5053617;28;19969;-62
2022/08/25 01:20:14;;;;;;;;;;;27.50;75.00;;;;;;5052982;28;19948;-62
2022/08/25 01:22:40;;;;;;;;;;;27.60;76.00;;;;;;5034521;28;19925;-62
2022/08/25 01:25:12;;;;;;;;;;;27.50;76.00;;;;;;5052781;28;19921;-63
2022/08/25 01:27:37;;;;;;;;;;;27.20;75.60;;;;;;5067752;28;20286;-61
2022/08/25 01:30:03;;;;;;;;;;;27.30;75.70;;;;;;5052936;28;19924;-63
2022/08/25 01:32:31;;;;;;;;;;;27.40;75.50;;;;;;5035501;28;19972;-62
2022/08/25 01:34:57;;;;;;;;;;;27.70;76.30;;;;;;5052464;28;20405;-62
2022/08/25 01:37:23;;;;;;;;;;;27.40;75.60;;;;;;5016602;28;19968;-61
2022/08/25 01:39:48;;;;;;;;;;;27.60;75.60;;;;;;5054132;28;19998;-62
2022/08/25 01:42:14;;;;;;;;;;;27.40;75.70;;;;;;5056328;28;19928;-65
2022/08/25 01:44:40;;;;;;;;;;;27.60;75.20;;;;;;5055570;28;19924;-62
2022/08/25 01:47:06;;;;;;;;;;;27.50;75.90;;;;;;5055160;28;20031;-61
2022/08/25 01:49:32;;;;;;;;;;;27.50;75.80;;;;;;5038471;28;19925;-63
2022/08/25 01:52:08;;;;;;;;;;;27.50;75.60;;;;;;5055499;28;20339;-62
2022/08/25 01:54:34;;;;;;;;;;;27.50;75.90;;;;;;5054755;28;19929;-62
2022/08/25 01:57:00;;;;;;;;;;;27.30;75.40;;;;;;5055052;28;19925;-62
2022/08/25 01:59:25;;;;;;;;;;;27.50;75.80;;;;;;5056159;28;20446;-62
2022/08/25 02:01:51;;;;;;;;;;;27.40;75.60;;;;;;5054143;28;20012;-62
2022/08/25 02:04:17;;;;;;;;;;;27.40;75.50;;;;;;5056333;28;19924;-63
2022/08/25 02:06:42;;;;;;;;;;;27.50;75.50;;;;;;5055808;28;19975;-62
2022/08/25 02:09:15;;;;;;;;;;;27.40;75.50;;;;;;5054255;28;19929;-62
2022/08/25 02:11:41;;;;;;;;;;;27.20;75.50;;;;;;5055262;28;20383;-62
2022/08/25 02:14:08;;;;;;;;;;;27.30;75.60;;;;;;5055831;28;19940;-62
2022/08/25 02:16:34;;;;;;;;;;;27.50;75.70;;;;;;5055941;28;19924;-62
2022/08/25 02:18:59;;;;;;;;;;;27.50;75.70;;;;;;5055556;28;19975;-62
2022/08/25 02:21:25;;;;;;;;;;;27.50;75.40;;;;;;5055673;28;19975;-62
2022/08/25 02:23:51;;;;;;;;;;;27.40;75.30;;;;;;5054336;28;19925;-63
2022/08/25 02:26:18;;;;;;;;;;;27.40;75.50;;;;;;5055179;28;19933;-62
2022/08/25 02:28:45;;;;;;;;;;;27.30;75.30;;;;;;5056095;28;19928;-61
2022/08/25 02:31:11;;;;;;;;;;;27.20;75.50;;;;;;5055183;28;19928;-61
2022/08/25 02:33:37;;;;;;;;;;;27.30;75.50;;;;;;5054896;28;19933;-62
2022/08/25 02:36:03;;;;;;;;;;;27.40;75.30;;;;;;5054272;28;19932;-62
2022/08/25 02:38:29;;;;;;;;;;;27.40;75.20;;;;;;5054368;28;19927;-62
2022/08/25 02:40:55;;;;;;;;;;;27.40;75.20;;;;;;5054657;28;20012;-62
2022/08/25 02:43:20;;;;;;;;;;;27.60;75.70;;;;;;5055050;28;20298;-62
2022/08/25 02:45:46;;;;;;;;;;;27.40;75.30;;;;;;5055495;28;20008;-62
2022/08/25 02:48:12;;;;;;;;;;;27.30;75.30;;;;;;5055439;28;20325;-62
2022/08/25 02:50:37;;;;;;;;;;;27.20;75.20;;;;;;5055291;28;19982;-62
2022/08/25 02:53:03;;;;;;;;;;;27.40;75.30;;;;;;5055369;28;19935;-62
2022/08/25 02:55:29;;;;;;;;;;;27.40;75.10;;;;;;5055029;28;19971;-62
2022/08/25 02:57:54;;;;;;;;;;;27.30;75.30;;;;;;5055329;28;19960;-62
2022/08/25 03:00:20;;;;;;;;;;;25.00;73.40;;;;;;5053691;28;19925;-62
2022/08/25 03:02:46;;;;;;;;;;;27.60;75.40;;;;;;5052307;28;20011;-62
2022/08/25 03:05:12;;;;;;;;;;;27.50;75.30;;;;;;5055159;28;20272;-62
2022/08/25 03:07:38;;;;;;;;;;;27.10;75.00;;;;;;5055104;28;19971;-62
2022/08/25 03:10:07;;;;;;;;;;;27.30;75.00;;;;;;5053720;28;20386;-63
2022/08/25 03:12:33;;;;;;;;;;;27.00;75.10;;;;;;5055167;28;20388;-62
2022/08/25 03:14:58;;;;;;;;;;;27.00;74.90;;;;;;5054972;28;19929;-62
2022/08/25 03:17:24;;;;;;;;;;;27.40;75.10;;;;;;5054937;28;19974;-62
2022/08/25 03:19:50;;;;;;;;;;;27.40;75.00;;;;;;5054792;28;20374;-62
2022/08/25 03:22:15;;;;;;;;;;;27.30;75.20;;;;;;5054305;28;19983;-62
2022/08/25 03:24:41;;;;;;;;;;;27.30;75.00;;;;;;5056044;28;19924;-62
2022/08/25 03:27:06;;;;;;;;;;;27.20;75.00;;;;;;5054203;28;19925;-61
2022/08/25 03:29:32;;;;;;;;;;;27.20;75.00;;;;;;5036028;28;20015;-62
2022/08/25 03:31:58;;;;;;;;;;;27.20;75.00;;;;;;5054223;28;20322;-62
2022/08/25 03:34:24;;;;;;;;;;;27.40;75.30;;;;;;5055274;28;20046;-62
2022/08/25 03:36:50;;;;;;;;;;;27.10;74.90;;;;;;5054013;28;19925;-62
2022/08/25 03:39:16;;;;;;;;;;;27.00;75.10;;;;;;5054207;28;20347;-62
2022/08/25 03:41:42;;;;;;;;;;;27.10;75.20;;;;;;5036030;28;20019;-65
2022/08/25 03:44:08;;;;;;;;;;;27.10;75.00;;;;;;5053585;28;19966;-62
2022/08/25 03:46:45;;;;;;;;;;;27.20;75.00;;;;;;5053821;28;19991;-63
2022/08/25 03:49:13;;;;;;;;;;;27.20;75.30;;;;;;5035011;28;20298;-62
2022/08/25 03:51:40;;;;;;;;;;;27.30;75.40;;;;;;5043361;28;19925;-62
2022/08/25 03:54:06;;;;;;;;;;;26.90;75.10;;;;;;5054455;28;19925;-62
2022/08/25 03:56:31;;;;;;;;;;;27.30;75.50;;;;;;5067821;28;19924;-62
2022/08/25 03:58:57;;;;;;;;;;;27.10;75.10;;;;;;5053671;28;19947;-63
2022/08/25 04:01:23;;;;;;;;;;;27.20;75.10;;;;;;5053633;28;19924;-61
2022/08/25 04:03:49;;;;;;;;;;;27.10;75.10;;;;;;5035677;28;20308;-62
2022/08/25 04:06:15;;;;;;;;;;;27.00;74.80;;;;;;5053506;28;20393;-63
2022/08/25 04:08:41;;;;;;;;;;;27.30;75.30;;;;;;5052630;28;20358;-62
2022/08/25 04:11:13;;;;;;;;;;;27.10;74.90;;;;;;5053874;28;19947;-62
2022/08/25 04:13:40;;;;;;;;;;;27.20;73.80;;;;;;5052921;28;20416;-62
2022/08/25 04:16:09;;;;;;;;;;;27.10;75.00;;;;;;5053590;28;19932;-62
2022/08/25 04:18:35;;;;;;;;;;;27.00;73.70;;;;;;5053137;28;19925;-62
2022/08/25 04:21:01;;;;;;;;;;;27.00;74.80;;;;;;5053852;28;19932;-62
2022/08/25 04:23:27;;;;;;;;;;;27.00;75.10;;;;;;5052392;28;20029;-63
2022/08/25 04:25:53;;;;;;;;;;;27.20;75.00;;;;;;5053183;28;19963;-61
2022/08/25 04:28:18;;;;;;;;;;;27.20;75.10;;;;;;5053656;28;19929;-62
2022/08/25 04:30:44;;;;;;;;;;;27.20;74.90;;;;;;5052394;28;19936;-62
2022/08/25 04:33:10;;;;;;;;;;;27.10;75.00;;;;;;5053388;28;19925;-63
2022/08/25 04:35:35;;;;;;;;;;;27.20;74.90;;;;;;5052861;28;20295;-62
2022/08/25 04:38:01;;;;;;;;;;;27.40;75.20;;;;;;5051664;28;19970;-63
2022/08/25 04:40:27;;;;;;;;;;;27.20;75.10;;;;;;5034108;28;19924;-63
2022/08/25 04:42:53;;;;;;;;;;;27.10;74.90;;;;;;5052845;28;19925;-62
2022/08/25 04:45:18;;;;;;;;;;;27.20;74.90;;;;;;5035447;28;19925;-66
2022/08/25 04:47:44;;;;;;;;;;;27.20;75.00;;;;;;5037027;28;19929;-63
2022/08/25 04:50:09;;;;;;;;;;;26.90;74.80;;;;;;5051269;28;20830;-62
2022/08/25 04:52:36;;;;;;;;;;;27.10;74.80;;;;;;5053410;28;19928;-61
2022/08/25 04:55:02;;;;;;;;;;;27.20;75.00;;;;;;5053482;28;20280;-62
2022/08/25 04:57:28;;;;;;;;;;;27.00;74.90;;;;;;5052414;28;20044;-62
2022/08/25 04:59:54;;;;;;;;;;;27.00;74.80;;;;;;5052418;28;20095;-65
2022/08/25 05:02:20;;;;;;;;;;;27.20;74.90;;;;;;5053234;28;19924;-62
2022/08/25 05:04:46;;;;;;;;;;;27.20;74.90;;;;;;5052776;28;20011;-62
2022/08/25 05:07:11;;;;;;;;;;;27.40;74.70;;;;;;5052236;28;20019;-62
2022/08/25 05:09:37;;;;;;;;;;;27.90;74.90;;;;;;5052776;28;19925;-62
2022/08/25 05:12:03;;;;;;;;;;;27.10;74.40;;;;;;5051970;28;20390;-61
2022/08/25 05:14:29;;;;;;;;;;;27.30;74.20;;;;;;5054790;28;19932;-62
2022/08/25 05:16:55;;;;;;;;;;;27.50;74.80;;;;;;5043847;28;19932;-63
2022/08/25 05:19:21;;;;;;;;;;;27.50;74.40;;;;;;5052439;28;19925;-64
2022/08/25 05:21:47;;;;;;;;;;;27.20;74.20;;;;;;5056303;28;20325;-62
2022/08/25 05:24:12;;;;;;;;;;;27.60;74.60;;;;;;5056232;28;19982;-69
2022/08/25 05:26:38;;;;;;;;;;;27.40;74.20;;;;;;5056605;28;19924;-62
2022/08/25 05:29:04;;;;;;;;;;;27.30;74.20;;;;;;5055897;28;19932;-63
2022/08/25 05:31:30;;;;;;;;;;;27.40;74.30;;;;;;5056460;28;19987;-70
2022/08/25 05:33:55;;;;;;;;;;;27.40;74.30;;;;;;5055619;28;19925;-62
2022/08/25 05:36:21;;;;;;;;;;;27.60;74.20;;;;;;5071794;28;19924;-62
2022/08/25 05:38:47;;;;;;;;;;;27.50;74.20;;;;;;5057140;28;19924;-62
2022/08/25 05:41:15;;;;;;;;;;;27.80;74.00;;;;;;5055535;28;19931;-62
2022/08/25 05:43:41;;;;;;;;;;;27.80;74.40;;;;;;5056253;28;19925;-62
2022/08/25 05:46:06;;;;;;;;;;;27.80;74.00;;;;;;5056717;28;19987;-62
2022/08/25 05:48:32;;;;;;;;;;;27.90;74.60;;;;;;5056032;28;20370;-62
2022/08/25 05:50:58;;;;;;;;;;;28.20;73.90;;;;;;5056155;28;20338;-62
2022/08/25 05:53:24;;;;;;;;;;;28.20;73.90;;;;;;5056179;28;19936;-62
2022/08/25 05:55:50;;;;;;;;;;;28.50;73.60;;;;;;5055670;28;19925;-62
2022/08/25 05:58:16;;;;;;;;;;;28.40;73.50;;;;;;5055451;28;19925;-62
2022/08/25 06:00:42;;;;;;;;;;;28.30;73.00;;;;;;5054081;28;19925;-62
2022/08/25 06:03:07;;;;;;;;;;;28.60;73.10;;;;;;5053348;28;20019;-62
2022/08/25 06:05:33;;;;;;;;;;;28.70;72.70;;;;;;5035954;28;19935;-62
2022/08/25 06:07:59;;;;;;;;;;;28.70;72.70;;;;;;5052101;28;19935;-71
2022/08/25 06:10:24;;;;;;;;;;;28.90;72.50;;;;;;5054936;28;19960;-63
2022/08/25 06:12:50;;;;;;;;;;;29.20;72.80;;;;;;5056690;28;19921;-62
2022/08/25 06:15:17;;;;;;;;;;;29.20;72.50;;;;;;5055363;28;19936;-62
2022/08/25 06:17:42;;;;;;;;;;;29.00;72.40;;;;;;5056307;28;19920;-63
2022/08/25 06:20:09;;;;;;;;;;;28.90;71.80;;;;;;5056400;28;19979;-64
2022/08/25 06:22:36;;;;;;;;;;;29.00;71.40;;;;;;5057013;28;19924;-67
2022/08/25 06:25:02;;;;;;;;;;;29.10;71.70;;;;;;5055417;28;19964;-71
2022/08/25 06:27:28;;;;;;;;;;;29.60;72.10;;;;;;5056141;28;20007;-71
2022/08/25 06:29:54;;;;;;;;;;;29.40;71.30;;;;;;5038376;28;19960;-66
2022/08/25 06:32:20;;;;;;;;;;;29.40;71.40;;;;;;5055487;28;19936;-67
2022/08/25 06:34:45;;;;;;;;;;;29.60;71.10;;;;;;5056095;28;19932;-71
2022/08/25 06:37:11;;;;;;;;;;;29.60;71.30;;;;;;5054258;28;20015;-63
2022/08/25 06:39:36;;;;;;;;;;;28.90;70.70;;;;;;5055072;28;19925;-67
2022/08/25 06:42:05;;;;;;;;;;;29.70;70.80;;;;;;5056273;28;19925;-68
2022/08/25 06:44:31;;;;;;;;;;;29.90;70.90;;;;;;5055939;28;20275;-66
2022/08/25 06:46:56;;;;;;;;;;;29.80;70.80;;;;;;5055175;28;19925;-70
2022/08/25 06:49:22;;;;;;;;;;;29.70;70.60;;;;;;5037592;28;19925;-67
2022/08/25 06:51:49;;;;;;;;;;;29.90;70.60;;;;;;5055818;28;20026;-67
2022/08/25 06:54:15;;;;;;;;;;;29.90;70.60;;;;;;5071079;28;20381;-65
2022/08/25 06:56:40;;;;;;;;;;;30.30;70.60;;;;;;5055494;28;20019;-66
2022/08/25 06:59:06;;;;;;;;;;;30.20;70.60;;;;;;5055418;28;19931;-66
2022/08/25 07:01:32;;;;;;;;;;;30.00;70.30;;;;;;5055939;28;19928;-67
2022/08/25 07:03:58;;;;;;;;;;;30.00;69.80;;;;;;5055627;28;19978;-64
2022/08/25 07:06:24;;;;;;;;;;;30.20;69.90;;;;;;5054067;28;20040;-63
2022/08/25 07:08:50;;;;;;;;;;;29.80;69.50;;;;;;5055283;28;19925;-63
2022/08/25 07:11:17;;;;;;;;;;;29.70;69.20;;;;;;5037977;28;19925;-63
2022/08/25 07:13:43;;;;;;;;;;;29.60;70.00;;;;;;5055387;28;19928;-63
2022/08/25 07:16:10;;;;;;;;;;;29.30;70.20;;;;;;5055604;28;19924;-64
2022/08/25 07:18:35;;;;;;;;;;;29.40;70.20;;;;;;5052947;28;19933;-63
2022/08/25 07:21:01;;;;;;;;;;;29.00;70.90;;;;;;5055445;28;19925;-62
2022/08/25 07:23:27;;;;;;;;;;;29.10;71.30;;;;;;5055299;28;20387;-63
2022/08/25 07:25:53;;;;;;;;;;;28.80;71.10;;;;;;5054948;28;19960;-63
2022/08/25 07:28:18;;;;;;;;;;;28.70;71.30;;;;;;5051645;28;19944;-61
2022/08/25 07:30:44;;;;;;;;;;;28.80;71.50;;;;;;5049459;28;20428;-62
2022/08/25 07:33:10;;;;;;;;;;;28.60;71.50;;;;;;5054671;28;19977;-62
2022/08/25 07:35:36;;;;;;;;;;;28.30;71.00;;;;;;5054397;28;19925;-63
2022/08/25 07:38:02;;;;;;;;;;;28.70;71.70;;;;;;5054280;28;19971;-63
2022/08/25 07:40:28;;;;;;;;;;;28.50;71.90;;;;;;5054305;28;20388;-62
2022/08/25 07:42:55;;;;;;;;;;;28.60;71.90;;;;;;5054830;28;20025;-63
2022/08/25 07:45:28;;;;;;;;;;;29.00;72.30;;;;;;5054980;28;19925;-62
2022/08/25 07:47:54;;;;;;;;;;;28.50;72.00;;;;;;5053624;28;19936;-62
2022/08/25 07:50:19;;;;;;;;;;;28.90;71.90;;;;;;5054945;28;19925;-62
2022/08/25 07:52:46;;;;;;;;;;;28.70;71.70;;;;;;5054358;28;20353;-62
2022/08/25 07:55:12;;;;;;;;;;;28.90;72.00;;;;;;5054910;28;19929;-62
2022/08/25 07:57:40;;;;;;;;;;;28.80;71.90;;;;;;5054109;28;19924;-62
2022/08/25 08:00:07;;;;;;;;;;;28.70;70.60;;;;;;5053693;28;20302;-66
2022/08/25 08:02:33;;;;;;;;;;;28.70;71.50;;;;;;5053863;28;20020;-68
2022/08/25 08:04:58;;;;;;;;;;;29.00;71.30;;;;;;5054112;28;20374;-75
2022/08/25 08:07:25;;;;;;;;;;;28.80;71.60;;;;;;5054506;28;20025;-72
2022/08/25 08:09:50;;;;;;;;;;;28.90;71.60;;;;;;5051130;28;19925;-62
2022/08/25 08:12:16;;;;;;;;;;;29.00;71.60;;;;;;5051807;28;19931;-63
2022/08/25 08:14:42;;;;;;;;;;;29.00;71.30;;;;;;5069364;28;19974;-63
2022/08/25 08:17:08;;;;;;;;;;;29.10;71.20;;;;;;5053620;28;19924;-63
2022/08/25 08:19:33;;;;;;;;;;;29.00;70.80;;;;;;5053728;28;19936;-62
2022/08/25 08:21:59;;;;;;;;;;;29.20;71.20;;;;;;5053202;28;19925;-65
2022/08/25 08:24:25;;;;;;;;;;;29.40;71.20;;;;;;5030243;28;19924;-74
2022/08/25 08:26:50;;;;;;;;;;;29.30;71.60;;;;;;5052256;28;20021;-65
2022/08/25 08:29:18;;;;;;;;;;;29.40;71.00;;;;;;5053980;28;20371;-61
2022/08/25 08:31:44;;;;;;;;;;;29.30;71.40;;;;;;5053832;28;20390;-62
2022/08/25 08:34:11;;;;;;;;;;;29.50;71.30;;;;;;5052742;28;19931;-62
2022/08/25 08:36:36;;;;;;;;;;;29.40;71.40;;;;;;5054197;28;19924;-62
2022/08/25 08:39:02;;;;;;;;;;;29.70;70.90;;;;;;5054077;28;19943;-62
2022/08/25 08:44:36;;;;;;;;;;;29.50;69.70;;;;;;5052960;28;20408;-62
2022/08/25 08:47:20;;;;;;;;;;;30.00;69.80;;;;;;5051695;28;19940;-62
2022/08/25 08:50:03;;;;;;;;;;;29.80;69.80;;;;;;5033770;28;19925;-62
2022/08/25 08:52:48;;;;;;;;;;;30.00;69.80;;;;;;5036137;28;19925;-63
2022/08/25 08:55:34;;;;;;;;;;;30.20;69.80;;;;;;5053121;28;19929;-62
2022/08/25 08:58:02;;;;;;;;;;;29.70;69.30;;;;;;5070974;28;19928;-62
2022/08/25 09:00:27;;;;;;;;;;;30.20;71.10;;;;;;5052397;28;19925;-63
2022/08/25 09:02:55;;;;;;;;;;;30.00;71.00;;;;;;5052746;28;19936;-62
2022/08/25 09:05:21;;;;;;;;;;;30.40;71.30;;;;;;5051524;28;19924;-62
2022/08/25 09:07:48;;;;;;;;;;;30.30;70.90;;;;;;5068027;28;19978;-65
2022/08/25 09:10:14;;;;;;;;;;;30.10;70.60;;;;;;5051985;28;19929;-68
2022/08/25 09:12:45;;;;;;;;;;;30.30;70.60;;;;;;5051618;28;19998;-62
2022/08/25 09:15:14;;;;;;;;;;;30.40;69.40;;;;;;5051903;28;19925;-62
2022/08/25 09:17:39;;;;;;;;;;;30.40;69.40;;;;;;5052742;28;19928;-62
2022/08/25 09:20:05;;;;;;;;;;;30.10;70.20;;;;;;5053407;28;19931;-62
2022/08/25 09:22:41;;;;;;;;;;;30.40;70.40;;;;;;5053558;28;19925;-62
2022/08/25 09:25:29;;;;;;;;;;;30.40;70.00;;;;;;5068883;28;20390;-62
2022/08/25 09:27:57;;;;;;;;;;;30.40;71.00;;;;;;5048547;28;20019;-62
2022/08/25 09:30:23;;;;;;;;;;;30.40;69.00;;;;;;5035600;28;20039;-63
2022/08/25 09:32:50;;;;;;;;;;;30.70;70.60;;;;;;5035810;28;19920;-63
2022/08/25 09:35:17;;;;;;;;;;;30.20;70.40;;;;;;5053268;28;19925;-62
2022/08/25 09:37:53;;;;;;;;;;;30.60;70.60;;;;;;5034342;28;19925;-62
2022/08/25 09:40:19;;;;;;;;;;;30.40;70.40;;;;;;5049961;28;19924;-67
2022/08/25 09:42:48;;;;;;;;;;;30.70;70.10;;;;;;5052811;28;20008;-62
2022/08/25 09:45:14;;;;;;;;;;;30.60;70.30;;;;;;5052925;28;19929;-65
2022/08/25 09:47:43;;;;;;;;;;;30.40;69.70;;;;;;5034948;28;19932;-65
2022/08/25 09:50:13;;;;;;;;;;;30.50;68.60;;;;;;5052659;28;20297;-63
2022/08/25 09:52:39;;;;;;;;;;;30.50;69.90;;;;;;5053155;28;19925;-62
2022/08/25 09:55:05;;;;;;;;;;;30.70;70.10;;;;;;5052195;28;19925;-63
2022/08/25 09:57:32;;;;;;;;;;;30.60;70.10;;;;;;5052147;28;20336;-65
2022/08/25 10:00:08;;;;;;;;;;;30.60;70.10;;;;;;5052882;28;19932;-65
2022/08/25 10:02:34;;;;;;;;;;;30.60;69.80;;;;;;5056510;28;19979;-65
2022/08/25 10:05:00;;;;;;;;;;;30.70;69.30;;;;;;5055904;28;20371;-65
2022/08/25 10:07:31;;;;;;;;;;;30.50;69.70;;;;;;5070177;28;19939;-65
2022/08/25 10:09:58;;;;;;;;;;;30.60;69.70;;;;;;5056183;28;19925;-62
2022/08/25 10:12:35;;;;;;;;;;;30.70;69.80;;;;;;5054510;28;19931;-63
2022/08/25 10:15:16;;;;;;;;;;;30.90;70.00;;;;;;5056140;28;19932;-62
2022/08/25 10:17:42;;;;;;;;;;;30.70;68.20;;;;;;5055621;28;19925;-63
2022/08/25 10:20:13;;;;;;;;;;;30.50;69.40;;;;;;5056464;28;20082;-63
2022/08/25 10:22:40;;;;;;;;;;;30.70;68.10;;;;;;5055215;28;20370;-62
2022/08/25 10:25:07;;;;;;;;;;;30.50;69.50;;;;;;5056299;28;19925;-62
2022/08/25 10:27:36;;;;;;;;;;;30.50;69.20;;;;;;5055368;28;19925;-62
2022/08/25 10:30:06;;;;;;;;;;;30.70;69.10;;;;;;5053920;28;19929;-63
2022/08/25 10:32:50;;;;;;;;;;;30.70;68.90;;;;;;5056520;28;20012;-63
2022/08/25 10:35:17;;;;;;;;;;;30.60;67.30;;;;;;5055129;28;21828;-72
2022/08/25 10:37:46;;;;;;;;;;;30.70;69.10;;;;;;5029159;28;19935;-66
2022/08/25 10:40:14;;;;;;;;;;;30.50;68.60;;;;;;5053888;28;20321;-62
2022/08/25 10:42:58;;;;;;;;;;;30.50;68.40;;;;;;5056058;28;19929;-63
2022/08/25 10:45:43;;;;;;;;;;;30.50;67.00;;;;;;5071763;28;19970;-63
2022/08/25 10:48:25;;;;;;;;;;;30.80;68.40;;;;;;5053598;28;19924;-63
2022/08/25 10:50:57;;;;;;;;;;;30.50;66.80;;;;;;5060163;28;20279;-62
2022/08/25 10:53:41;;;;;;;;;;;30.60;67.10;;;;;;5056129;28;19936;-63
2022/08/25 10:56:09;;;;;;;;;;;30.60;67.20;;;;;;5055579;28;20290;-62
2022/08/25 10:58:54;;;;;;;;;;;30.50;68.20;;;;;;5071175;28;20373;-62
2022/08/25 11:01:28;;;;;;;;;;;30.60;66.90;;;;;;5054534;28;19954;-63
2022/08/25 11:03:54;;;;;;;;;;;30.60;66.60;;;;;;5055611;28;19932;-63
2022/08/25 11:06:22;;;;;;;;;;;30.80;67.70;;;;;;5037690;28;20310;-62
2022/08/25 11:08:59;;;;;;;;;;;31.00;67.90;;;;;;5071388;28;19924;-63
2022/08/25 11:11:24;;;;;;;;;;;30.90;66.80;;;;;;5054708;28;19929;-62
2022/08/25 11:14:00;;;;;;;;;;;31.10;68.50;;;;;;5054469;28;20272;-62
2022/08/25 11:16:39;;;;;;;;;;;31.10;66.90;;;;;;5037539;28;19932;-63
2022/08/25 11:19:12;;;;;;;;;;;31.00;66.70;;;;;;5071009;28;20345;-66
2022/08/25 11:21:37;;;;;;;;;;;31.10;66.80;;;;;;5054161;28;20312;-66
2022/08/25 11:24:15;;;;;;;;;;;30.80;67.70;;;;;;5054377;28;20019;-62
2022/08/25 11:26:41;;;;;;;;;;;31.00;66.90;;;;;;5055420;28;19925;-62
2022/08/25 11:29:16;;;;;;;;;;;31.10;68.30;;;;;;5052540;28;19994;-62
2022/08/25 11:31:43;;;;;;;;;;;30.80;66.80;;;;;;5054277;28;20298;-62
2022/08/25 11:34:17;;;;;;;;;;;31.10;68.40;;;;;;5069667;28;19979;-66
2022/08/25 11:36:43;;;;;;;;;;;30.80;68.10;;;;;;5053828;28;19925;-66
2022/08/25 11:39:16;;;;;;;;;;;30.80;68.10;;;;;;5053722;28;19924;-63
2022/08/25 11:41:51;;;;;;;;;;;31.00;66.90;;;;;;5070596;28;19924;-62
2022/08/25 11:44:20;;;;;;;;;;;30.80;66.80;;;;;;5067043;28;19925;-65
2022/08/25 11:46:46;;;;;;;;;;;31.00;67.10;;;;;;5053823;28;19931;-65
2022/08/25 11:49:22;;;;;;;;;;;31.20;68.30;;;;;;5054595;28;19995;-62
2022/08/25 11:51:48;;;;;;;;;;;31.30;66.90;;;;;;5053807;28;19932;-63
2022/08/25 11:54:26;;;;;;;;;;;30.80;67.70;;;;;;5036793;28;19929;-62
2022/08/25 11:57:02;;;;;;;;;;;31.30;66.90;;;;;;5067860;28;19931;-63
2022/08/25 11:59:46;;;;;;;;;;;31.20;66.90;;;;;;5068875;28;19925;-62
2022/08/25 12:02:27;;;;;;;;;;;31.40;66.90;;;;;;5053750;28;20019;-62
2022/08/25 12:04:54;;;;;;;;;;;31.10;68.00;;;;;;5054375;28;20306;-62
2022/08/25 12:07:27;;;;;;;;;;;31.10;67.50;;;;;;5034481;28;19932;-65
2022/08/25 12:09:54;;;;;;;;;;;31.20;66.20;;;;;;5050296;28;20381;-63
2022/08/25 12:12:36;;;;;;;;;;;31.20;67.20;;;;;;5069740;28;19964;-61
2022/08/25 12:15:25;;;;;;;;;;;31.10;65.70;;;;;;5054513;28;19932;-62
2022/08/25 12:18:10;;;;;;;;;;;31.40;66.20;;;;;;5052106;28;19925;-62
2022/08/25 12:20:53;;;;;;;;;;;31.10;66.00;;;;;;5052106;28;20398;-62
2022/08/25 12:23:28;;;;;;;;;;;31.30;66.30;;;;;;5051809;28;19932;-61
2022/08/25 12:25:54;;;;;;;;;;;31.10;66.40;;;;;;5052062;28;19929;-62
2022/08/25 12:28:26;;;;;;;;;;;30.90;67.20;;;;;;5051973;28;20309;-61
2022/08/25 12:30:53;;;;;;;;;;;31.10;66.50;;;;;;5036088;28;19925;-61
2022/08/25 12:33:19;;;;;;;;;;;31.00;67.90;;;;;;5015600;28;19925;-63
2022/08/25 12:36:03;;;;;;;;;;;31.10;67.80;;;;;;5032719;28;19932;-62
2022/08/25 12:38:30;;;;;;;;;;;31.10;66.50;;;;;;5031939;28;19925;-62
2022/08/25 12:40:59;;;;;;;;;;;31.30;68.10;;;;;;5015539;28;19925;-62
2022/08/25 12:43:44;;;;;;;;;;;31.10;68.00;;;;;;5031898;28;20326;-62
2022/08/25 12:46:22;;;;;;;;;;;31.30;66.70;;;;;;5033562;28;20019;-62
2022/08/25 12:49:06;;;;;;;;;;;31.30;66.80;;;;;;5035389;28;20378;-62
2022/08/25 12:51:32;;;;;;;;;;;31.20;66.70;;;;;;5035067;28;19961;-61
2022/08/25 12:54:16;;;;;;;;;;;31.10;67.60;;;;;;5051982;28;19925;-61
2022/08/25 12:57:14;;;;;;;;;;;31.30;66.60;;;;;;5054030;28;20011;-62
2022/08/25 12:59:41;;;;;;;;;;;31.10;66.50;;;;;;5015310;28;19925;-62
2022/08/25 13:02:20;;;;;;;;;;;31.30;68.10;;;;;;5031620;28;20025;-62
2022/08/25 13:04:48;;;;;;;;;;;31.10;66.40;;;;;;5031331;28;19987;-62
2022/08/25 13:07:23;;;;;;;;;;;31.50;66.80;;;;;;5031377;28;19925;-61
2022/08/25 13:10:10;;;;;;;;;;;31.20;66.60;;;;;;5031708;28;20012;-61
2022/08/25 13:12:41;;;;;;;;;;;31.30;66.70;;;;;;5031548;28;19932;-62
2022/08/25 13:15:10;;;;;;;;;;;31.10;68.00;;;;;;5031538;28;19925;-62
2022/08/25 13:17:36;;;;;;;;;;;31.30;68.00;;;;;;5031402;28;19925;-65
2022/08/25 13:20:15;;;;;;;;;;;31.30;67.70;;;;;;5031348;28;19925;-62
2022/08/25 13:22:42;;;;;;;;;;;31.20;66.60;;;;;;5031541;28;19925;-62
2022/08/25 13:25:13;;;;;;;;;;;31.40;68.00;;;;;;5031510;28;19933;-62
2022/08/25 13:27:39;;;;;;;;;;;31.40;68.10;;;;;;5031910;28;20019;-62
2022/08/25 13:30:04;;;;;;;;;;;31.00;67.50;;;;;;5031368;28;19987;-61
2022/08/25 13:32:31;;;;;;;;;;;31.50;67.50;;;;;;5031412;28;19921;-62
2022/08/25 13:35:16;;;;;;;;;;;31.50;68.10;;;;;;5023870;28;19964;-62
2022/08/25 13:37:42;;;;;;;;;;;31.00;66.30;;;;;;5057421;28;19928;-61
2022/08/25 13:40:22;;;;;;;;;;;31.50;68.10;;;;;;5039712;28;20362;-62
2022/08/25 13:42:48;;;;;;;;;;;31.10;66.60;;;;;;5057192;28;19925;-61
2022/08/25 13:45:15;;;;;;;;;;;31.40;68.10;;;;;;5057123;28;20433;-62
2022/08/25 13:47:41;;;;;;;;;;;31.00;68.00;;;;;;5072355;28;19924;-62
2022/08/25 13:50:14;;;;;;;;;;;31.20;67.70;;;;;;5057201;28;19924;-62
2022/08/25 13:52:39;;;;;;;;;;;31.20;66.60;;;;;;5057337;28;19925;-61
2022/08/25 13:55:05;;;;;;;;;;;31.20;67.60;;;;;;5056742;28;19983;-62
2022/08/25 13:57:32;;;;;;;;;;;31.40;67.50;;;;;;5057186;28;20016;-63
2022/08/25 14:00:03;;;;;;;;;;;31.20;67.80;;;;;;5072108;28;20016;-62
2022/08/25 14:02:38;;;;;;;;;;;31.00;66.40;;;;;;5057118;28;20334;-62
2022/08/25 14:05:04;;;;;;;;;;;31.00;66.50;;;;;;5072028;28;20441;-62
2022/08/25 14:07:31;;;;;;;;;;;31.10;67.60;;;;;;5055086;28;20020;-65
2022/08/25 14:10:07;;;;;;;;;;;31.30;67.90;;;;;;5055741;28;19925;-68
2022/08/25 14:12:33;;;;;;;;;;;31.10;65.90;;;;;;5052709;28;19935;-64
2022/08/25 14:15:10;;;;;;;;;;;31.00;65.90;;;;;;5056568;28;20420;-65
2022/08/25 14:17:37;;;;;;;;;;;31.00;64.30;;;;;;5055755;28;19925;-65
2022/08/25 14:20:03;;;;;;;;;;;30.80;65.30;;;;;;5054568;28;20125;-62
2022/08/25 14:22:29;;;;;;;;;;;31.10;65.00;;;;;;5038572;28;19928;-62
2022/08/25 14:24:54;;;;;;;;;;;31.00;64.90;;;;;;5038608;28;20326;-62
2022/08/25 14:27:20;;;;;;;;;;;31.00;64.90;;;;;;5055022;28;20448;-62